createdAt,value
2018-06-12T00:00:02.667Z,0
2018-06-12T00:01:02.717Z,0
2018-06-12T00:02:02.736Z,0
2018-06-12T00:03:02.768Z,0
2018-06-12T00:04:02.789Z,0
2018-06-12T00:05:02.558Z,0
2018-06-12T00:06:02.845Z,0
2018-06-12T00:07:02.866Z,0
2018-06-12T00:08:02.897Z,0
2018-06-12T00:09:02.934Z,0
2018-06-12T00:10:02.948Z,0
2018-06-12T00:11:02.709Z,0
2018-06-12T00:12:03.291Z,0
2018-06-12T00:13:03.269Z,0
2018-06-12T00:14:02.534Z,0
2018-06-12T00:15:03.353Z,0
2018-06-12T00:16:03.342Z,0
2018-06-12T00:17:03.373Z,0
2018-06-12T00:18:03.149Z,0
2018-06-12T00:19:03.415Z,0
2018-06-12T00:20:02.698Z,0
2018-06-12T00:21:03.529Z,0
2018-06-12T00:22:03.505Z,0
2018-06-12T00:23:03.033Z,0
2018-06-12T00:24:03.301Z,0
2018-06-12T00:25:03.587Z,0
2018-06-12T00:26:03.353Z,0
2018-06-12T00:27:03.690Z,0
2018-06-12T00:28:03.653Z,0
2018-06-12T00:29:03.715Z,0
2018-06-12T00:30:03.437Z,0
2018-06-12T00:31:03.712Z,0
2018-06-12T00:32:03.244Z,0
2018-06-12T00:33:03.768Z,0
2018-06-12T00:34:03.551Z,0
2018-06-12T00:35:03.827Z,0
2018-06-12T00:36:03.633Z,0
2018-06-12T00:37:03.925Z,0
2018-06-12T00:38:03.388Z,0
2018-06-12T00:39:03.426Z,0
2018-06-12T00:40:03.715Z,0
2018-06-12T00:41:03.991Z,0
2018-06-12T00:42:04.062Z,0
2018-06-12T00:43:03.785Z,0
2018-06-12T00:44:03.824Z,0
2018-06-12T00:45:04.094Z,0
2018-06-12T00:46:03.869Z,0
2018-06-12T00:47:03.885Z,0
2018-06-12T00:48:04.163Z,0
2018-06-12T00:49:03.932Z,0
2018-06-12T00:50:03.985Z,0
2018-06-12T00:51:04.247Z,0
2018-06-12T00:52:04.033Z,0
2018-06-12T00:53:04.040Z,0
2018-06-12T00:54:04.312Z,0
2018-06-12T00:55:04.343Z,0
2018-06-12T00:56:04.112Z,0
2018-06-12T00:57:04.181Z,0
2018-06-12T00:58:04.440Z,0
2018-06-12T00:59:04.165Z,0
2018-06-12T01:00:04.443Z,0
2018-06-12T01:01:04.214Z,0
2018-06-12T01:02:04.507Z,0
2018-06-12T01:03:04.012Z,0
2018-06-12T01:04:04.546Z,0
2018-06-12T01:05:04.564Z,0
2018-06-12T01:06:04.347Z,0
2018-06-12T01:07:04.411Z,0
2018-06-12T01:08:04.667Z,0
2018-06-12T01:09:04.192Z,0
2018-06-12T01:10:04.461Z,0
2018-06-12T01:11:04.754Z,0
2018-06-12T01:12:04.823Z,0
2018-06-12T01:13:04.548Z,0
2018-06-12T01:14:04.565Z,0
2018-06-12T01:15:04.593Z,0
2018-06-12T01:16:04.367Z,0
2018-06-12T01:17:04.400Z,0
2018-06-12T01:18:04.662Z,0
2018-06-12T01:19:04.441Z,0
2018-06-12T01:20:04.978Z,0
2018-06-12T01:21:04.736Z,0
2018-06-12T01:22:05.019Z,0
2018-06-12T01:23:04.785Z,0
2018-06-12T01:24:04.561Z,0
2018-06-12T01:25:04.585Z,0
2018-06-12T01:26:04.856Z,0
2018-06-12T01:27:04.930Z,0
2018-06-12T01:28:05.146Z,0
2018-06-12T01:29:05.188Z,0
2018-06-12T01:30:05.218Z,0
2018-06-12T01:31:05.002Z,0
2018-06-12T01:32:05.020Z,0
2018-06-12T01:33:04.535Z,0
2018-06-12T01:34:05.325Z,0
2018-06-12T01:35:04.835Z,0
2018-06-12T01:36:05.379Z,0
2018-06-12T01:37:05.407Z,0
2018-06-12T01:38:05.169Z,0
2018-06-12T01:39:05.198Z,0
2018-06-12T01:40:05.236Z,0
2018-06-12T01:41:04.737Z,0
2018-06-12T01:42:05.354Z,0
2018-06-12T01:43:05.293Z,0
2018-06-12T01:44:05.572Z,0
2018-06-12T01:45:05.607Z,0
2018-06-12T01:46:05.365Z,0
2018-06-12T01:47:05.392Z,0
2018-06-12T01:48:05.164Z,0
2018-06-12T01:49:05.699Z,0
2018-06-12T01:50:05.468Z,0
2018-06-12T01:51:05.489Z,0
2018-06-12T01:52:05.016Z,0
2018-06-12T01:53:05.533Z,0
2018-06-12T01:54:05.302Z,0
2018-06-12T01:55:05.830Z,0
2018-06-12T01:56:05.867Z,0
2018-06-12T01:57:05.625Z,0
2018-06-12T01:58:05.966Z,0
2018-06-12T01:59:05.936Z,0
2018-06-12T02:00:05.717Z,0
2018-06-12T02:01:05.727Z,0
2018-06-12T02:02:05.779Z,0
2018-06-12T02:03:05.837Z,0
2018-06-12T02:04:05.557Z,0
2018-06-12T02:05:05.832Z,0
2018-06-12T02:06:05.350Z,0
2018-06-12T02:07:05.898Z,0
2018-06-12T02:08:05.402Z,0
2018-06-12T02:09:05.940Z,0
2018-06-12T02:10:05.954Z,0
2018-06-12T02:11:05.490Z,0
2018-06-12T02:12:05.764Z,0
2018-06-12T02:13:06.011Z,0
2018-06-12T02:14:06.068Z,0
2018-06-12T02:15:06.360Z,0
2018-06-12T02:16:05.871Z,0
2018-06-12T02:17:06.435Z,0
2018-06-12T02:18:06.424Z,0
2018-06-12T02:19:05.950Z,0
2018-06-12T02:20:05.978Z,0
2018-06-12T02:21:06.011Z,0
2018-06-12T02:22:06.031Z,0
2018-06-12T02:23:06.297Z,0
2018-06-12T02:24:06.572Z,0
2018-06-12T02:25:06.358Z,0
2018-06-12T02:26:06.623Z,0
2018-06-12T02:27:06.658Z,0
2018-06-12T02:28:06.481Z,0
2018-06-12T02:29:06.424Z,0
2018-06-12T02:30:06.764Z,0
2018-06-12T02:31:06.729Z,0
2018-06-12T02:32:06.512Z,0
2018-06-12T02:33:06.328Z,0
2018-06-12T02:34:06.804Z,0
2018-06-12T02:35:06.592Z,0
2018-06-12T02:36:06.364Z,0
2018-06-12T02:37:06.921Z,0
2018-06-12T02:38:06.426Z,0
2018-06-12T02:39:06.961Z,0
2018-06-12T02:40:06.994Z,0
2018-06-12T02:41:06.274Z,0
2018-06-12T02:42:06.813Z,0
2018-06-12T02:43:07.077Z,0
2018-06-12T02:44:06.842Z,0
2018-06-12T02:45:06.897Z,0
2018-06-12T02:46:06.357Z,0
2018-06-12T02:47:06.884Z,0
2018-06-12T02:48:07.229Z,0
2018-06-12T02:49:06.686Z,0
2018-06-12T02:50:06.958Z,0
2018-06-12T02:51:07.251Z,0
2018-06-12T02:52:07.280Z,0
2018-06-12T02:53:06.540Z,0
2018-06-12T02:54:06.822Z,0
2018-06-12T02:55:07.109Z,0
2018-06-12T02:56:07.138Z,0
2018-06-12T02:57:06.896Z,0
2018-06-12T02:58:07.430Z,0
2018-06-12T02:59:07.198Z,0
2018-06-12T03:00:06.459Z,0
2018-06-12T03:01:07.257Z,0
2018-06-12T03:02:07.538Z,0
2018-06-12T03:03:07.356Z,0
2018-06-12T03:04:07.577Z,0
2018-06-12T03:05:07.617Z,0
2018-06-12T03:06:07.384Z,0
2018-06-12T03:07:07.174Z,0
2018-06-12T03:08:07.412Z,0
2018-06-12T03:09:07.442Z,0
2018-06-12T03:10:07.280Z,0
2018-06-12T03:11:07.749Z,0
2018-06-12T03:12:07.530Z,0
2018-06-12T03:13:07.547Z,0
2018-06-12T03:14:07.822Z,0
2018-06-12T03:15:07.848Z,0
2018-06-12T03:16:07.872Z,0
2018-06-12T03:17:07.393Z,0
2018-06-12T03:18:07.464Z,5
2018-06-12T03:19:07.938Z,5
2018-06-12T03:20:07.460Z,5
2018-06-12T03:21:07.750Z,5
2018-06-12T03:22:07.763Z,5
2018-06-12T03:23:08.107Z,5
2018-06-12T03:24:07.823Z,5
2018-06-12T03:25:07.575Z,5
2018-06-12T03:26:07.601Z,10
2018-06-12T03:27:08.157Z,10
2018-06-12T03:28:07.867Z,10
2018-06-12T03:29:07.956Z,10
2018-06-12T03:30:07.675Z,10
2018-06-12T03:31:08.215Z,10
2018-06-12T03:32:07.966Z,15
2018-06-12T03:33:08.058Z,15
2018-06-12T03:34:08.015Z,15
2018-06-12T03:35:08.052Z,15
2018-06-12T03:36:07.812Z,15
2018-06-12T03:37:08.148Z,15
2018-06-12T03:38:08.156Z,20
2018-06-12T03:39:08.422Z,20
2018-06-12T03:40:08.200Z,20
2018-06-12T03:41:08.238Z,25
2018-06-12T03:42:08.257Z,25
2018-06-12T03:43:08.036Z,25
2018-06-12T03:44:08.301Z,25
2018-06-12T03:45:08.583Z,20
2018-06-12T03:46:08.198Z,20
2018-06-12T03:47:08.619Z,20
2018-06-12T03:48:08.176Z,20
2018-06-12T03:49:08.157Z,20
2018-06-12T03:50:08.215Z,20
2018-06-12T03:51:07.962Z,25
2018-06-12T03:52:08.753Z,25
2018-06-12T03:53:08.519Z,25
2018-06-12T03:54:08.540Z,25
2018-06-12T03:55:08.329Z,25
2018-06-12T03:56:08.336Z,20
2018-06-12T03:57:08.642Z,20
2018-06-12T03:58:08.909Z,20
2018-06-12T03:59:08.423Z,20
2018-06-12T04:00:08.696Z,20
2018-06-12T04:01:07.957Z,20
2018-06-12T04:02:08.512Z,20
2018-06-12T04:03:08.307Z,20
2018-06-12T04:04:08.830Z,25
2018-06-12T04:05:08.557Z,25
2018-06-12T04:06:08.850Z,25
2018-06-12T04:07:08.865Z,20
2018-06-12T04:08:08.651Z,20
2018-06-12T04:09:08.669Z,20
2018-06-12T04:10:08.943Z,20
2018-06-12T04:11:09.218Z,20
2018-06-12T04:12:09.006Z,25
2018-06-12T04:13:09.022Z,30
2018-06-12T04:14:09.310Z,30
2018-06-12T04:15:09.338Z,35
2018-06-12T04:16:09.094Z,30
2018-06-12T04:17:09.377Z,30
2018-06-12T04:18:09.475Z,30
2018-06-12T04:19:09.168Z,35
2018-06-12T04:20:09.198Z,35
2018-06-12T04:21:09.201Z,30
2018-06-12T04:22:09.493Z,30
2018-06-12T04:23:09.261Z,30
2018-06-12T04:24:09.011Z,30
2018-06-12T04:25:09.043Z,25
2018-06-12T04:26:09.325Z,25
2018-06-12T04:27:09.093Z,20
2018-06-12T04:28:09.372Z,20
2018-06-12T04:29:09.146Z,20
2018-06-12T04:30:09.679Z,25
2018-06-12T04:31:09.712Z,25
2018-06-12T04:32:09.733Z,25
2018-06-12T04:33:10.827Z,30
2018-06-12T04:34:09.540Z,30
2018-06-12T04:35:09.559Z,35
2018-06-12T04:36:09.588Z,35
2018-06-12T04:37:09.627Z,40
2018-06-12T04:38:09.899Z,45
2018-06-12T04:39:09.670Z,45
2018-06-12T04:40:09.681Z,50
2018-06-12T04:41:09.710Z,50
2018-06-12T04:42:09.785Z,50
2018-06-12T04:43:09.758Z,55
2018-06-12T04:44:09.789Z,60
2018-06-12T04:45:09.551Z,65
2018-06-12T04:46:09.829Z,70
2018-06-12T04:47:09.857Z,65
2018-06-12T04:48:10.186Z,65
2018-06-12T04:49:09.908Z,70
2018-06-12T04:50:09.697Z,75
2018-06-12T04:51:10.209Z,75
2018-06-12T04:52:10.230Z,75
2018-06-12T04:53:10.012Z,85
2018-06-12T04:54:10.026Z,85
2018-06-12T04:55:10.301Z,85
2018-06-12T04:56:10.073Z,95
2018-06-12T04:57:10.363Z,100
2018-06-12T04:58:11.378Z,95
2018-06-12T04:59:10.416Z,95
2018-06-12T05:00:10.178Z,95
2018-06-12T05:01:09.951Z,95
2018-06-12T05:02:10.225Z,95
2018-06-12T05:03:09.796Z,90
2018-06-12T05:04:10.286Z,80
2018-06-12T05:05:10.559Z,75
2018-06-12T05:06:10.325Z,80
2018-06-12T05:07:10.357Z,85
2018-06-12T05:08:10.635Z,90
2018-06-12T05:09:09.890Z,80
2018-06-12T05:10:10.433Z,80
2018-06-12T05:11:10.203Z,80
2018-06-12T05:12:10.763Z,75
2018-06-12T05:13:10.599Z,75
2018-06-12T05:14:10.265Z,70
2018-06-12T05:15:10.812Z,70
2018-06-12T05:16:10.325Z,80
2018-06-12T05:17:10.863Z,80
2018-06-12T05:18:10.676Z,75
2018-06-12T05:19:10.403Z,80
2018-06-12T05:20:10.936Z,85
2018-06-12T05:21:10.691Z,85
2018-06-12T05:22:10.722Z,90
2018-06-12T05:23:10.738Z,100
2018-06-12T05:24:10.517Z,105
2018-06-12T05:25:10.788Z,115
2018-06-12T05:26:10.563Z,110
2018-06-12T05:27:10.849Z,105
2018-06-12T05:28:11.128Z,100
2018-06-12T05:29:10.631Z,105
2018-06-12T05:30:10.915Z,100
2018-06-12T05:31:11.177Z,95
2018-06-12T05:32:10.705Z,100
2018-06-12T05:33:11.295Z,115
2018-06-12T05:34:11.011Z,120
2018-06-12T05:35:11.029Z,120
2018-06-12T05:36:10.819Z,110
2018-06-12T05:37:10.584Z,105
2018-06-12T05:38:11.104Z,100
2018-06-12T05:39:10.880Z,90
2018-06-12T05:40:11.416Z,85
2018-06-12T05:41:10.961Z,85
2018-06-12T05:42:10.735Z,80
2018-06-12T05:43:11.253Z,80
2018-06-12T05:44:11.538Z,80
2018-06-12T05:45:11.572Z,80
2018-06-12T05:46:11.085Z,80
2018-06-12T05:47:11.370Z,80
2018-06-12T05:48:10.936Z,85
2018-06-12T05:49:11.420Z,90
2018-06-12T05:50:11.696Z,90
2018-06-12T05:51:11.213Z,95
2018-06-12T05:52:11.498Z,100
2018-06-12T05:53:11.518Z,105
2018-06-12T05:54:11.288Z,115
2018-06-12T05:55:11.594Z,120
2018-06-12T05:56:11.343Z,120
2018-06-12T05:57:11.363Z,115
2018-06-12T05:58:11.388Z,110
2018-06-12T05:59:11.624Z,100
2018-06-12T06:00:11.417Z,90
2018-06-12T06:01:11.739Z,85
2018-06-12T06:02:11.746Z,80
2018-06-12T06:03:11.566Z,75
2018-06-12T06:04:11.292Z,70
2018-06-12T06:05:11.833Z,65
2018-06-12T06:06:11.855Z,60
2018-06-12T06:07:11.616Z,60
2018-06-12T06:08:12.145Z,55
2018-06-12T06:09:11.928Z,55
2018-06-12T06:10:12.232Z,60
2018-06-12T06:11:11.975Z,70
2018-06-12T06:12:12.269Z,80
2018-06-12T06:13:12.027Z,90
2018-06-12T06:14:12.312Z,100
2018-06-12T06:15:11.829Z,110
2018-06-12T06:16:11.852Z,115
2018-06-12T06:17:12.612Z,125
2018-06-12T06:18:11.682Z,130
2018-06-12T06:19:12.143Z,130
2018-06-12T06:20:12.436Z,120
2018-06-12T06:21:12.218Z,115
2018-06-12T06:22:11.969Z,115
2018-06-12T06:23:12.286Z,115
2018-06-12T06:24:12.027Z,120
2018-06-12T06:25:11.803Z,135
2018-06-12T06:26:12.143Z,145
2018-06-12T06:27:12.350Z,145
2018-06-12T06:28:12.670Z,140
2018-06-12T06:29:12.189Z,135
2018-06-12T06:30:12.500Z,135
2018-06-12T06:31:12.498Z,135
2018-06-12T06:32:12.801Z,135
2018-06-12T06:33:12.844Z,135
2018-06-12T06:34:12.570Z,140
2018-06-12T06:35:12.338Z,145
2018-06-12T06:36:12.455Z,140
2018-06-12T06:37:12.881Z,135
2018-06-12T06:38:12.969Z,130
2018-06-12T06:39:12.700Z,130
2018-06-12T06:40:12.704Z,140
2018-06-12T06:41:12.500Z,140
2018-06-12T06:42:13.030Z,140
2018-06-12T06:43:12.956Z,140
2018-06-12T06:44:12.826Z,140
2018-06-12T06:45:12.861Z,130
2018-06-12T06:46:12.883Z,115
2018-06-12T06:47:12.396Z,105
2018-06-12T06:48:12.675Z,100
2018-06-12T06:49:12.968Z,100
2018-06-12T06:50:12.729Z,120
2018-06-12T06:51:13.469Z,145
2018-06-12T06:52:13.040Z,140
2018-06-12T06:53:12.865Z,135
2018-06-12T06:54:13.341Z,125
2018-06-12T06:55:13.368Z,135
2018-06-12T06:56:13.152Z,145
2018-06-12T06:57:13.166Z,155
2018-06-12T06:58:12.934Z,155
2018-06-12T06:59:13.471Z,180
2018-06-12T07:00:13.498Z,205
2018-06-12T07:01:13.524Z,240
2018-06-12T07:02:13.293Z,265
2018-06-12T07:03:13.623Z,290
2018-06-12T07:04:13.599Z,320
2018-06-12T07:05:13.388Z,370
2018-06-12T07:06:13.395Z,375
2018-06-12T07:07:13.668Z,425
2018-06-12T07:08:13.689Z,370
2018-06-12T07:09:13.714Z,365
2018-06-12T07:10:13.497Z,395
2018-06-12T07:11:13.521Z,380
2018-06-12T07:12:13.541Z,390
2018-06-12T07:13:13.919Z,405
2018-06-12T07:14:13.878Z,360
2018-06-12T07:15:13.635Z,335
2018-06-12T07:16:13.656Z,325
2018-06-12T07:17:13.716Z,315
2018-06-12T07:18:13.752Z,290
2018-06-12T07:19:13.746Z,275
2018-06-12T07:20:14.036Z,265
2018-06-12T07:21:13.803Z,260
2018-06-12T07:22:13.551Z,265
2018-06-12T07:23:13.832Z,265
2018-06-12T07:24:13.874Z,255
2018-06-12T07:25:13.636Z,250
2018-06-12T07:26:13.665Z,265
2018-06-12T07:27:13.946Z,300
2018-06-12T07:28:13.973Z,335
2018-06-12T07:29:14.000Z,360
2018-06-12T07:30:14.560Z,350
2018-06-12T07:31:13.548Z,340
2018-06-12T07:32:14.382Z,340
2018-06-12T07:33:14.256Z,330
2018-06-12T07:34:14.400Z,325
2018-06-12T07:35:14.459Z,320
2018-06-12T07:36:14.451Z,320
2018-06-12T07:37:14.488Z,330
2018-06-12T07:38:14.270Z,335
2018-06-12T07:39:14.278Z,345
2018-06-12T07:40:14.060Z,345
2018-06-12T07:41:14.343Z,345
2018-06-12T07:42:13.872Z,445
2018-06-12T07:43:14.370Z,425
2018-06-12T07:44:14.166Z,340
2018-06-12T07:45:13.923Z,330
2018-06-12T07:46:14.706Z,325
2018-06-12T07:47:14.760Z,325
2018-06-12T07:48:14.078Z,330
2018-06-12T07:49:14.586Z,310
2018-06-12T07:50:14.846Z,310
2018-06-12T07:51:14.895Z,310
2018-06-12T07:52:14.394Z,320
2018-06-12T07:53:14.925Z,340
2018-06-12T07:54:14.696Z,360
2018-06-12T07:55:13.965Z,370
2018-06-12T07:56:14.505Z,370
2018-06-12T07:57:15.040Z,365
2018-06-12T07:58:14.565Z,355
2018-06-12T07:59:14.857Z,360
2018-06-12T08:00:14.873Z,355
2018-06-12T08:01:14.644Z,360
2018-06-12T08:02:14.928Z,350
2018-06-12T08:03:14.495Z,350
2018-06-12T08:04:15.229Z,345
2018-06-12T08:05:15.265Z,345
2018-06-12T08:06:15.039Z,355
2018-06-12T08:07:15.219Z,360
2018-06-12T08:08:14.844Z,360
2018-06-12T08:09:15.388Z,360
2018-06-12T08:10:14.900Z,360
2018-06-12T08:11:15.174Z,360
2018-06-12T08:12:15.465Z,360
2018-06-12T08:13:15.178Z,350
2018-06-12T08:14:15.517Z,340
2018-06-12T08:15:15.306Z,335
2018-06-12T08:16:15.328Z,330
2018-06-12T08:17:15.105Z,335
2018-06-12T08:18:15.686Z,390
2018-06-12T08:19:15.164Z,345
2018-06-12T08:20:15.702Z,320
2018-06-12T08:21:15.222Z,325
2018-06-12T08:22:15.492Z,330
2018-06-12T08:23:15.269Z,340
2018-06-12T08:24:15.804Z,350
2018-06-12T08:25:15.584Z,360
2018-06-12T08:26:15.622Z,365
2018-06-12T08:27:15.900Z,370
2018-06-12T08:28:15.673Z,375
2018-06-12T08:29:15.936Z,375
2018-06-12T08:30:16.160Z,380
2018-06-12T08:31:15.999Z,385
2018-06-12T08:32:15.787Z,390
2018-06-12T08:33:15.808Z,405
2018-06-12T08:34:16.136Z,430
2018-06-12T08:35:15.862Z,430
2018-06-12T08:36:15.901Z,445
2018-06-12T08:37:15.921Z,470
2018-06-12T08:38:15.693Z,615
2018-06-12T08:39:16.773Z,510
2018-06-12T08:40:16.266Z,485
2018-06-12T08:41:16.294Z,475
2018-06-12T08:42:16.081Z,455
2018-06-12T08:43:16.096Z,450
2018-06-12T08:44:16.119Z,440
2018-06-12T08:45:15.909Z,420
2018-06-12T08:46:16.441Z,395
2018-06-12T08:47:15.958Z,370
2018-06-12T08:48:15.996Z,350
2018-06-12T08:49:16.016Z,345
2018-06-12T08:50:16.314Z,325
2018-06-12T08:51:16.330Z,320
2018-06-12T08:52:16.617Z,325
2018-06-12T08:53:16.383Z,335
2018-06-12T08:54:16.480Z,335
2018-06-12T08:55:16.436Z,320
2018-06-12T08:56:16.471Z,325
2018-06-12T08:57:16.753Z,315
2018-06-12T08:58:16.523Z,320
2018-06-12T08:59:16.576Z,310
2018-06-12T09:00:16.844Z,305
2018-06-12T09:01:16.610Z,300
2018-06-12T09:02:16.641Z,285
2018-06-12T09:03:16.675Z,295
2018-06-12T09:04:16.499Z,320
2018-06-12T09:05:16.502Z,355
2018-06-12T09:06:16.760Z,385
2018-06-12T09:07:17.044Z,405
2018-06-12T09:08:17.077Z,435
2018-06-12T09:09:16.855Z,470
2018-06-12T09:10:16.625Z,480
2018-06-12T09:11:17.154Z,490
2018-06-12T09:12:16.679Z,480
2018-06-12T09:13:16.976Z,480
2018-06-12T09:14:17.253Z,490
2018-06-12T09:15:17.281Z,505
2018-06-12T09:16:17.050Z,520
2018-06-12T09:17:17.096Z,530
2018-06-12T09:18:16.861Z,535
2018-06-12T09:19:16.904Z,540
2018-06-12T09:20:16.929Z,545
2018-06-12T09:21:17.195Z,550
2018-06-12T09:22:17.531Z,555
2018-06-12T09:23:17.517Z,560
2018-06-12T09:24:17.538Z,555
2018-06-12T09:25:17.876Z,550
2018-06-12T09:26:17.593Z,555
2018-06-12T09:27:17.112Z,570
2018-06-12T09:28:17.411Z,595
2018-06-12T09:29:17.690Z,590
2018-06-12T09:30:17.467Z,570
2018-06-12T09:31:17.491Z,500
2018-06-12T09:32:17.775Z,455
2018-06-12T09:33:17.844Z,435
2018-06-12T09:34:17.628Z,410
2018-06-12T09:35:17.354Z,395
2018-06-12T09:36:17.893Z,395
2018-06-12T09:37:17.980Z,405
2018-06-12T09:38:17.700Z,410
2018-06-12T09:39:17.730Z,420
2018-06-12T09:40:17.760Z,425
2018-06-12T09:41:17.534Z,425
2018-06-12T09:42:18.054Z,430
2018-06-12T09:43:17.841Z,435
2018-06-12T09:44:17.885Z,440
2018-06-12T09:45:18.166Z,450
2018-06-12T09:46:17.936Z,485
2018-06-12T09:47:17.978Z,495
2018-06-12T09:48:18.253Z,490
2018-06-12T09:49:18.087Z,485
2018-06-12T09:50:18.051Z,475
2018-06-12T09:51:18.071Z,485
2018-06-12T09:52:19.233Z,505
2018-06-12T09:53:17.900Z,510
2018-06-12T09:54:18.433Z,520
2018-06-12T09:55:18.204Z,520
2018-06-12T09:56:18.030Z,505
2018-06-12T09:57:18.274Z,485
2018-06-12T09:58:18.309Z,460
2018-06-12T09:59:18.327Z,450
2018-06-12T10:00:18.364Z,445
2018-06-12T10:01:18.133Z,445
2018-06-12T10:02:18.773Z,445
2018-06-12T10:03:18.191Z,435
2018-06-12T10:04:18.732Z,440
2018-06-12T10:05:18.510Z,465
2018-06-12T10:06:18.791Z,510
2018-06-12T10:07:18.599Z,510
2018-06-12T10:08:18.322Z,540
2018-06-12T10:09:18.890Z,590
2018-06-12T10:10:18.657Z,710
2018-06-12T10:11:18.690Z,730
2018-06-12T10:12:18.968Z,685
2018-06-12T10:13:19.000Z,545
2018-06-12T10:14:18.777Z,530
2018-06-12T10:15:18.809Z,530
2018-06-12T10:16:18.846Z,530
2018-06-12T10:17:18.875Z,520
2018-06-12T10:18:19.157Z,510
2018-06-12T10:19:19.196Z,520
2018-06-12T10:20:19.234Z,555
2018-06-12T10:21:19.007Z,590
2018-06-12T10:22:19.084Z,725
2018-06-12T10:23:19.317Z,615
2018-06-12T10:24:19.093Z,560
2018-06-12T10:25:19.132Z,525
2018-06-12T10:26:19.423Z,615
2018-06-12T10:27:18.933Z,515
2018-06-12T10:28:19.482Z,535
2018-06-12T10:29:19.499Z,550
2018-06-12T10:30:19.028Z,570
2018-06-12T10:31:19.311Z,430
2018-06-12T10:32:19.089Z,415
2018-06-12T10:33:19.371Z,410
2018-06-12T10:34:19.403Z,385
2018-06-12T10:35:19.196Z,380
2018-06-12T10:36:19.472Z,375
2018-06-12T10:37:19.677Z,360
2018-06-12T10:38:19.792Z,355
2018-06-12T10:39:19.563Z,365
2018-06-12T10:40:19.606Z,400
2018-06-12T10:41:19.631Z,420
2018-06-12T10:42:19.917Z,425
2018-06-12T10:43:19.943Z,435
2018-06-12T10:44:19.473Z,440
2018-06-12T10:45:20.013Z,455
2018-06-12T10:46:20.044Z,485
2018-06-12T10:47:19.843Z,435
2018-06-12T10:48:19.846Z,445
2018-06-12T10:49:20.137Z,455
2018-06-12T10:50:20.166Z,465
2018-06-12T10:51:20.198Z,475
2018-06-12T10:52:19.768Z,475
2018-06-12T10:53:20.253Z,485
2018-06-12T10:54:20.032Z,475
2018-06-12T10:55:20.321Z,475
2018-06-12T10:56:20.350Z,500
2018-06-12T10:57:20.387Z,535
2018-06-12T10:58:20.415Z,530
2018-06-12T10:59:19.947Z,730
2018-06-12T11:00:20.225Z,755
2018-06-12T11:01:19.747Z,625
2018-06-12T11:02:20.542Z,540
2018-06-12T11:03:20.369Z,515
2018-06-12T11:04:20.345Z,475
2018-06-12T11:05:20.384Z,430
2018-06-12T11:06:20.407Z,405
2018-06-12T11:07:20.490Z,410
2018-06-12T11:08:20.733Z,425
2018-06-12T11:09:20.776Z,410
2018-06-12T11:10:20.281Z,415
2018-06-12T11:11:20.882Z,425
2018-06-12T11:12:20.856Z,445
2018-06-12T11:13:20.886Z,480
2018-06-12T11:14:20.663Z,520
2018-06-12T11:15:20.951Z,630
2018-06-12T11:16:20.476Z,615
2018-06-12T11:17:21.006Z,690
2018-06-12T11:18:20.782Z,735
2018-06-12T11:19:20.558Z,835
2018-06-12T11:20:20.853Z,870
2018-06-12T11:21:20.392Z,695
2018-06-12T11:22:21.209Z,650
2018-06-12T11:23:21.210Z,650
2018-06-12T11:24:20.466Z,635
2018-06-12T11:25:21.265Z,600
2018-06-12T11:26:21.304Z,455
2018-06-12T11:27:21.148Z,385
2018-06-12T11:28:21.112Z,395
2018-06-12T11:29:21.409Z,410
2018-06-12T11:30:21.180Z,425
2018-06-12T11:31:21.457Z,435
2018-06-12T11:32:21.244Z,435
2018-06-12T11:33:21.263Z,435
2018-06-12T11:34:21.544Z,410
2018-06-12T11:35:21.318Z,425
2018-06-12T11:36:21.123Z,445
2018-06-12T11:37:21.689Z,480
2018-06-12T11:38:21.164Z,520
2018-06-12T11:39:21.699Z,560
2018-06-12T11:40:21.240Z,605
2018-06-12T11:41:21.525Z,650
2018-06-12T11:42:21.827Z,710
2018-06-12T11:43:21.638Z,730
2018-06-12T11:44:21.929Z,775
2018-06-12T11:45:21.665Z,770
2018-06-12T11:46:21.945Z,835
2018-06-12T11:47:21.719Z,810
2018-06-12T11:48:21.749Z,800
2018-06-12T11:49:21.534Z,750
2018-06-12T11:50:21.583Z,1005
2018-06-12T11:51:22.104Z,915
2018-06-12T11:52:21.663Z,990
2018-06-12T11:53:21.641Z,1015
2018-06-12T11:54:21.931Z,985
2018-06-12T11:55:21.961Z,960
2018-06-12T11:56:22.001Z,930
2018-06-12T11:57:22.035Z,650
2018-06-12T11:58:22.058Z,660
2018-06-12T11:59:21.591Z,965
2018-06-12T12:00:22.148Z,935
2018-06-12T12:01:22.249Z,725
2018-06-12T12:02:22.217Z,915
2018-06-12T12:03:22.504Z,825
2018-06-12T12:04:22.532Z,985
2018-06-12T12:05:22.309Z,1045
2018-06-12T12:06:21.843Z,1030
2018-06-12T12:07:22.480Z,1100
2018-06-12T12:08:22.481Z,810
2018-06-12T12:09:22.446Z,720
2018-06-12T12:10:22.727Z,960
2018-06-12T12:11:22.766Z,675
2018-06-12T12:12:22.822Z,575
2018-06-12T12:13:22.330Z,520
2018-06-12T12:14:22.621Z,500
2018-06-12T12:15:22.656Z,490
2018-06-12T12:16:22.689Z,515
2018-06-12T12:17:22.221Z,630
2018-06-12T12:18:22.747Z,455
2018-06-12T12:19:22.771Z,465
2018-06-12T12:20:22.830Z,485
2018-06-12T12:21:23.121Z,530
2018-06-12T12:22:22.946Z,705
2018-06-12T12:23:23.344Z,790
2018-06-12T12:24:23.214Z,775
2018-06-12T12:25:22.993Z,605
2018-06-12T12:26:23.281Z,760
2018-06-12T12:27:23.317Z,720
2018-06-12T12:28:23.347Z,1025
2018-06-12T12:29:22.874Z,1080
2018-06-12T12:30:23.424Z,1125
2018-06-12T12:31:23.192Z,1105
2018-06-12T12:32:23.225Z,1100
2018-06-12T12:33:23.518Z,1020
2018-06-12T12:34:23.290Z,965
2018-06-12T12:35:23.585Z,995
2018-06-12T12:36:23.357Z,1050
2018-06-12T12:37:23.697Z,1060
2018-06-12T12:38:23.435Z,1080
2018-06-12T12:39:23.715Z,1070
2018-06-12T12:40:23.746Z,1050
2018-06-12T12:41:23.778Z,1000
2018-06-12T12:42:23.610Z,745
2018-06-12T12:43:23.344Z,600
2018-06-12T12:44:23.633Z,565
2018-06-12T12:45:23.914Z,545
2018-06-12T12:46:23.703Z,655
2018-06-12T12:47:23.988Z,765
2018-06-12T12:48:24.273Z,770
2018-06-12T12:49:24.058Z,770
2018-06-12T12:50:23.829Z,750
2018-06-12T12:51:24.129Z,685
2018-06-12T12:52:23.644Z,710
2018-06-12T12:53:24.197Z,700
2018-06-12T12:54:23.714Z,670
2018-06-12T12:55:24.245Z,650
2018-06-12T12:56:24.030Z,595
2018-06-12T12:57:24.384Z,570
2018-06-12T12:58:23.613Z,515
2018-06-12T12:59:24.381Z,475
2018-06-12T13:00:24.421Z,445
2018-06-12T13:01:23.707Z,410
2018-06-12T13:02:23.974Z,390
2018-06-12T13:03:24.513Z,370
2018-06-12T13:04:24.264Z,350
2018-06-12T13:05:24.300Z,335
2018-06-12T13:06:24.329Z,325
2018-06-12T13:07:24.158Z,330
2018-06-12T13:08:24.552Z,345
2018-06-12T13:09:24.673Z,355
2018-06-12T13:10:24.207Z,365
2018-06-12T13:11:24.493Z,380
2018-06-12T13:12:24.276Z,400
2018-06-12T13:13:24.847Z,415
2018-06-12T13:14:24.371Z,415
2018-06-12T13:15:24.912Z,395
2018-06-12T13:16:24.941Z,355
2018-06-12T13:17:24.725Z,320
2018-06-12T13:18:25.020Z,290
2018-06-12T13:19:25.042Z,280
2018-06-12T13:20:24.922Z,270
2018-06-12T13:21:24.847Z,265
2018-06-12T13:22:24.915Z,260
2018-06-12T13:23:24.899Z,255
2018-06-12T13:24:24.925Z,250
2018-06-12T13:25:25.220Z,240
2018-06-12T13:26:25.026Z,230
2018-06-12T13:27:24.778Z,220
2018-06-12T13:28:24.313Z,205
2018-06-12T13:29:24.592Z,190
2018-06-12T13:30:25.397Z,180
2018-06-12T13:31:25.409Z,175
2018-06-12T13:32:25.176Z,180
2018-06-12T13:33:25.273Z,175
